createdAt,value
2018-12-05T08:45:48.712Z,58.85
2018-12-05T08:46:48.670Z,58.07
2018-12-05T08:47:49.697Z,58.58
2018-12-05T08:48:48.659Z,58.97
2018-12-05T08:49:48.726Z,59.48
2018-12-05T08:50:48.638Z,59.80
2018-12-05T08:51:48.709Z,60.02
2018-12-05T08:52:48.607Z,60.21
2018-12-05T08:53:48.681Z,59.98
2018-12-05T08:54:48.599Z,60.58
2018-12-05T08:55:48.649Z,60.12
2018-12-05T08:56:48.558Z,59.97
2018-12-05T08:57:48.627Z,60.44
2018-12-05T08:58:48.547Z,60.91
2018-12-05T08:59:48.621Z,60.45
2018-12-05T09:00:48.512Z,60.78
2018-12-05T09:01:48.559Z,60.50
2018-12-05T09:02:48.487Z,60.12
2018-12-05T09:03:48.525Z,60.49
2018-12-05T09:04:48.490Z,60.17
2018-12-05T09:05:48.531Z,60.51
2018-12-05T09:06:48.451Z,60.13
2018-12-05T09:07:48.461Z,60.47
2018-12-05T09:08:48.417Z,60.98
2018-12-05T09:09:48.467Z,60.67
2018-12-05T09:10:48.419Z,60.49
2018-12-05T09:11:48.502Z,60.60
2018-12-05T09:12:48.375Z,61.24
2018-12-05T09:13:48.463Z,61.45
2018-12-05T09:14:48.383Z,61.27
2018-12-05T09:15:48.441Z,61.38
2018-12-05T09:16:48.351Z,61.17
2018-12-05T09:17:48.421Z,61.07
2018-12-05T09:18:48.306Z,61.07
2018-12-05T09:19:48.391Z,61.20
2018-12-05T09:20:48.313Z,60.99
2018-12-05T09:21:48.335Z,61.51
2018-12-05T09:22:48.273Z,61.71
2018-12-05T09:23:48.311Z,62.23
2018-12-05T09:24:48.251Z,61.51
2018-12-05T09:25:49.342Z,62.23
2018-12-05T09:26:48.223Z,62.23
2018-12-05T09:27:48.338Z,61.58
2018-12-05T09:28:48.201Z,61.94
2018-12-05T09:29:48.315Z,61.29
2018-12-05T09:30:48.203Z,61.24
2018-12-05T09:31:48.279Z,60.53
2018-12-05T09:32:48.159Z,59.55
2018-12-05T09:33:49.171Z,59.19
2018-12-05T09:34:48.136Z,58.51
2018-12-05T09:35:48.251Z,58.12
2018-12-05T09:36:48.105Z,58.48
2018-12-05T09:37:49.217Z,57.74
2018-12-05T09:38:48.100Z,57.89
2018-12-05T09:39:48.158Z,57.63
2018-12-05T09:40:48.093Z,58.22
2018-12-05T09:41:48.227Z,57.88
2018-12-05T09:42:48.039Z,57.62
2018-12-05T09:43:48.193Z,56.88
2018-12-05T09:44:48.020Z,56.04
2018-12-05T09:45:48.207Z,56.22
2018-12-05T09:46:48.000Z,56.50
2018-12-05T09:47:48.135Z,56.68
2018-12-05T09:48:47.973Z,55.43
2018-12-05T09:49:48.096Z,55.20
2018-12-05T09:50:47.974Z,54.79
2018-12-05T09:51:48.068Z,54.57
2018-12-05T09:52:47.924Z,54.13
2018-12-05T09:53:48.031Z,54.03
2018-12-05T09:54:47.916Z,54.00
2018-12-05T09:55:48.079Z,52.99
2018-12-05T09:56:47.883Z,53.58
2018-12-05T09:57:47.970Z,52.66
2018-12-05T09:58:47.864Z,52.76
2018-12-05T09:59:48.044Z,52.94
2018-12-05T10:00:47.870Z,52.33
2018-12-05T10:01:47.915Z,51.78
2018-12-05T10:02:47.841Z,51.29
2018-12-05T10:03:47.976Z,51.80
2018-12-05T10:04:47.796Z,51.27
2018-12-05T10:05:47.942Z,51.37
2018-12-05T10:06:47.796Z,51.25
2018-12-05T10:07:47.911Z,51.04
2018-12-05T10:08:47.744Z,51.07
2018-12-05T10:09:47.878Z,50.96
2018-12-05T10:10:47.718Z,50.66
2018-12-05T10:11:47.843Z,50.34
2018-12-05T10:12:47.702Z,50.34
2018-12-05T10:13:48.840Z,50.15
2018-12-05T10:14:47.680Z,49.95
2018-12-05T10:15:49.732Z,50.15
2018-12-05T10:16:47.682Z,50.03
2018-12-05T10:17:47.758Z,49.93
2018-12-05T10:18:47.629Z,49.73
2018-12-05T10:19:47.734Z,49.83
2018-12-05T10:20:47.618Z,49.11
2018-12-05T10:21:47.738Z,49.32
2018-12-05T10:22:47.595Z,49.11
2018-12-05T10:23:47.653Z,48.31
2018-12-05T10:24:47.563Z,48.41
2018-12-05T10:25:47.727Z,47.70
2018-12-05T10:26:47.562Z,47.09
2018-12-05T10:27:47.597Z,47.27
2018-12-05T10:28:47.522Z,46.99
2018-12-05T10:29:47.662Z,47.07
2018-12-05T10:30:47.505Z,46.36
2018-12-05T10:31:47.676Z,46.67
2018-12-05T10:32:47.476Z,46.56
2018-12-05T10:33:47.601Z,46.38
2018-12-05T10:34:47.444Z,46.75
2018-12-05T10:35:47.578Z,47.71
2018-12-05T10:36:47.448Z,48.97
2018-12-05T10:37:47.537Z,48.84
2018-12-05T10:38:47.396Z,49.09
2018-12-05T10:39:47.515Z,49.85
2018-12-05T10:40:47.375Z,50.20
2018-12-05T10:41:47.518Z,50.15
2018-12-05T10:42:47.357Z,50.68
2018-12-05T10:43:47.545Z,50.52
2018-12-05T10:44:47.341Z,51.16
2018-12-05T10:45:47.410Z,50.90
2018-12-05T10:46:47.345Z,51.44
2018-12-05T10:47:47.495Z,51.34
2018-12-05T10:48:47.304Z,51.67
2018-12-05T10:49:47.450Z,52.00
2018-12-05T10:50:47.266Z,51.48
2018-12-05T10:51:47.348Z,52.23
2018-12-05T10:52:47.237Z,52.33
2018-12-05T10:53:47.397Z,52.15
2018-12-05T10:54:47.233Z,52.38
2018-12-05T10:55:47.262Z,51.87
2018-12-05T10:56:47.226Z,52.92
2018-12-05T10:57:47.324Z,52.51
2018-12-05T10:58:47.184Z,53.66
2018-12-05T10:59:47.295Z,53.45
2018-12-05T11:00:47.181Z,54.00
2018-12-05T11:01:47.297Z,53.58
2018-12-05T11:02:47.123Z,54.30
2018-12-05T11:03:47.225Z,53.71
2018-12-05T11:04:47.110Z,54.13
2018-12-05T11:05:47.410Z,54.22
2018-12-05T11:06:47.162Z,54.33
2018-12-05T11:07:47.200Z,54.97
2018-12-05T11:08:47.055Z,55.07
2018-12-05T11:09:47.233Z,54.87
2018-12-05T11:10:47.031Z,55.62
2018-12-05T11:11:47.204Z,55.38
2018-12-05T11:12:47.037Z,55.59
2018-12-05T11:13:47.073Z,55.21
2018-12-05T11:14:46.995Z,55.72
2018-12-05T11:15:47.143Z,56.13
2018-12-05T11:16:46.987Z,56.34
2018-12-05T11:17:47.045Z,55.93
2018-12-05T11:18:46.951Z,55.82
2018-12-05T11:19:47.087Z,55.72
2018-12-05T11:20:46.923Z,56.05
2018-12-05T11:21:49.871Z,55.85
2018-12-05T11:22:46.920Z,56.75
2018-12-05T11:23:47.595Z,57.26
2018-12-05T11:24:46.873Z,57.09
2018-12-05T11:25:46.972Z,57.09
2018-12-05T11:26:46.849Z,57.06
2018-12-05T11:27:47.081Z,57.09
2018-12-05T11:28:46.840Z,56.88
2018-12-05T11:29:46.909Z,57.39
2018-12-05T11:30:46.811Z,57.18
2018-12-05T11:31:46.878Z,57.39
2018-12-05T11:32:46.946Z,57.60
2018-12-05T11:33:46.949Z,57.70
2018-12-05T11:34:46.765Z,58.11
2018-12-05T11:35:46.821Z,58.63
2018-12-05T11:36:46.739Z,57.93
2018-12-05T11:37:46.926Z,58.22
2018-12-05T11:38:46.728Z,58.04
2018-12-05T11:39:46.852Z,58.32
2018-12-05T11:40:46.710Z,58.76
2018-12-05T11:41:46.834Z,58.76
2018-12-05T11:42:46.745Z,58.86
2018-12-05T11:43:46.788Z,58.97
2018-12-05T11:44:46.657Z,58.65
2018-12-05T11:45:46.863Z,58.55
2018-12-05T11:46:46.629Z,58.55
2018-12-05T11:47:46.768Z,58.25
2018-12-05T11:48:46.625Z,58.37
2018-12-05T11:49:46.797Z,58.79
2018-12-05T11:50:46.592Z,59.09
2018-12-05T11:51:46.660Z,59.09
2018-12-05T11:52:46.602Z,59.51
2018-12-05T11:53:46.629Z,59.20
2018-12-05T11:54:46.544Z,59.20
2018-12-05T11:55:46.611Z,59.41
2018-12-05T11:56:46.533Z,59.09
2018-12-05T11:57:46.567Z,59.30
2018-12-05T11:58:46.529Z,58.99
2018-12-05T11:59:46.547Z,59.72
2018-12-05T12:00:46.475Z,59.72
2018-12-05T12:01:46.469Z,59.61
2018-12-05T12:02:46.463Z,60.02
2018-12-05T12:03:46.511Z,59.92
2018-12-05T12:04:46.429Z,59.92
2018-12-05T12:05:46.561Z,59.92
2018-12-05T12:06:46.415Z,60.44
2018-12-05T12:07:46.513Z,60.47
2018-12-05T12:08:46.407Z,60.57
2018-12-05T12:09:46.481Z,60.54
2018-12-05T12:10:46.363Z,60.13
2018-12-05T12:11:46.445Z,60.64
2018-12-05T12:12:46.339Z,60.44
2018-12-05T12:13:46.451Z,60.64
2018-12-05T12:14:46.329Z,60.44
2018-12-05T12:15:46.379Z,60.54
2018-12-05T12:16:46.309Z,60.16
2018-12-05T12:17:46.360Z,60.13
2018-12-05T12:18:46.294Z,60.23
2018-12-05T12:19:47.343Z,59.82
2018-12-05T12:20:46.255Z,59.72
2018-12-05T12:21:46.293Z,59.84
2018-12-05T12:22:46.231Z,59.92
2018-12-05T12:23:46.311Z,59.92
2018-12-05T12:24:46.209Z,60.02
2018-12-05T12:25:46.221Z,59.64
2018-12-05T12:26:46.188Z,59.82
2018-12-05T12:27:46.192Z,59.72
2018-12-05T12:28:46.191Z,59.84
2018-12-05T12:29:46.259Z,59.72
2018-12-05T12:30:46.148Z,59.95
2018-12-05T12:31:46.243Z,59.20
2018-12-05T12:32:46.115Z,58.92
2018-12-05T12:33:46.243Z,59.30
2018-12-05T12:34:46.101Z,59.33
2018-12-05T12:35:46.181Z,59.44
2018-12-05T12:36:46.085Z,58.81
2018-12-05T12:37:46.223Z,58.81
2018-12-05T12:38:46.051Z,59.33
2018-12-05T12:39:46.153Z,59.23
2018-12-05T12:40:46.023Z,59.44
2018-12-05T12:41:46.098Z,59.33
2018-12-05T12:42:46.006Z,59.44
2018-12-05T12:43:46.040Z,59.23
2018-12-05T12:44:45.995Z,59.33
2018-12-05T12:45:46.006Z,59.23
2018-12-05T12:46:45.965Z,59.02
2018-12-05T12:47:45.975Z,59.02
2018-12-05T12:48:45.942Z,59.02
2018-12-05T12:49:45.983Z,59.44
2018-12-05T12:50:45.915Z,59.95
2018-12-05T12:51:46.014Z,59.46
2018-12-05T12:52:45.898Z,59.02
2018-12-05T12:53:45.998Z,59.02
2018-12-05T12:54:45.906Z,59.33
2018-12-05T12:55:46.043Z,59.53
2018-12-05T12:56:45.853Z,59.33
2018-12-05T12:57:45.923Z,59.33
2018-12-05T12:58:45.835Z,59.44
2018-12-05T12:59:45.952Z,59.33
2018-12-05T13:00:45.807Z,59.15
2018-12-05T13:01:45.886Z,59.46
2018-12-05T13:02:45.782Z,58.84
2018-12-05T13:03:45.826Z,59.25
2018-12-05T13:04:45.781Z,59.77
2018-12-05T13:05:45.792Z,59.77
2018-12-05T13:06:45.732Z,59.67
2018-12-05T13:07:45.761Z,59.98
2018-12-05T13:08:45.712Z,59.67
2018-12-05T13:09:45.774Z,60.00
2018-12-05T13:10:45.689Z,60.00
2018-12-05T13:11:45.805Z,60.11
2018-12-05T13:12:45.668Z,60.11
2018-12-05T13:13:46.686Z,60.42
2018-12-05T13:14:45.669Z,60.52
2018-12-05T13:15:45.747Z,60.52
2018-12-05T13:16:45.626Z,60.63
2018-12-05T13:17:45.703Z,60.63
2018-12-05T13:18:45.610Z,61.04
2018-12-05T13:19:45.724Z,60.73
2018-12-05T13:20:45.591Z,60.73
2018-12-05T13:21:45.643Z,60.52
2018-12-05T13:22:45.561Z,61.35
2018-12-05T13:23:45.607Z,61.24
2018-12-05T13:24:45.555Z,61.35
2018-12-05T13:25:45.581Z,61.45
2018-12-05T13:26:45.531Z,61.45
2018-12-05T13:27:45.551Z,61.17
2018-12-05T13:28:45.499Z,61.04
2018-12-05T13:29:45.550Z,61.07
2018-12-05T13:30:45.465Z,61.17
2018-12-05T13:31:45.481Z,61.58
2018-12-05T13:32:45.437Z,61.27
2018-12-05T13:33:45.556Z,61.07
2018-12-05T13:34:45.463Z,61.17
2018-12-05T13:35:45.457Z,60.96
2018-12-05T13:36:45.397Z,61.58
2018-12-05T13:37:45.495Z,61.58
2018-12-05T13:38:45.373Z,61.99
2018-12-05T13:39:45.459Z,61.89
2018-12-05T13:40:47.001Z,61.89
2018-12-05T13:41:45.431Z,61.92
2018-12-05T13:42:45.341Z,62.20
2018-12-05T13:43:45.388Z,62.23
2018-12-05T13:44:45.311Z,61.51
2018-12-05T13:45:45.413Z,62.13
2018-12-05T13:46:45.289Z,62.13
2018-12-05T13:47:45.327Z,62.34
2018-12-05T13:48:45.274Z,62.85
2018-12-05T13:49:45.298Z,62.34
2018-12-05T13:50:45.275Z,62.44
2018-12-05T13:51:45.366Z,62.75
2018-12-05T13:52:45.226Z,63.68
2018-12-05T13:53:45.334Z,63.16
2018-12-05T13:54:45.202Z,63.06
2018-12-05T13:55:46.358Z,63.16
2018-12-05T13:56:45.173Z,63.26
2018-12-05T13:57:45.281Z,63.06
2018-12-05T13:58:45.157Z,63.19
2018-12-05T13:59:45.239Z,63.57
2018-12-05T14:00:45.159Z,63.78
2018-12-05T14:01:45.220Z,63.50
2018-12-05T14:02:45.113Z,63.50
2018-12-05T14:03:45.174Z,63.81
2018-12-05T14:04:45.080Z,64.02
2018-12-05T14:05:45.188Z,64.12
2018-12-05T14:06:45.064Z,64.23
2018-12-05T14:07:45.126Z,64.02
2018-12-05T14:08:45.044Z,64.15
2018-12-05T14:09:45.084Z,64.25
2018-12-05T14:10:45.032Z,64.36
2018-12-05T14:11:45.049Z,64.84
2018-12-05T14:12:44.998Z,64.98
2018-12-05T14:13:45.028Z,64.77
2018-12-05T14:14:44.977Z,64.77
2018-12-05T14:15:45.027Z,65.19
2018-12-05T14:16:44.967Z,64.98
2018-12-05T14:17:45.057Z,64.98
2018-12-05T14:18:44.927Z,65.08
2018-12-05T14:19:45.029Z,65.08
2018-12-05T14:20:44.931Z,64.39
2018-12-05T14:21:45.035Z,64.56
2018-12-05T14:22:44.887Z,65.42
2018-12-05T14:23:44.963Z,65.42
2018-12-05T14:24:44.861Z,64.18
2018-12-05T14:25:44.965Z,65.11
2018-12-05T14:26:44.854Z,65.01
2018-12-05T14:27:44.900Z,65.45
2018-12-05T14:28:44.817Z,65.22
2018-12-05T14:29:44.817Z,65.56
2018-12-05T14:30:46.491Z,65.56
2018-12-05T14:31:45.896Z,65.14
2018-12-05T14:32:44.768Z,65.01
2018-12-05T14:33:44.805Z,65.22
2018-12-05T14:34:44.747Z,65.73
2018-12-05T14:35:44.794Z,65.66
2018-12-05T14:36:44.751Z,65.66
2018-12-05T14:37:44.852Z,65.66
2018-12-05T14:38:44.709Z,65.56
2018-12-05T14:39:44.819Z,66.08
2018-12-05T14:40:44.679Z,65.97
2018-12-05T14:41:44.721Z,65.87
2018-12-05T14:42:44.661Z,66.28
2018-12-05T14:43:44.747Z,65.87
2018-12-05T14:44:44.639Z,66.49
2018-12-05T14:45:44.715Z,66.18
2018-12-05T14:46:44.624Z,66.38
2018-12-05T14:47:44.686Z,66.28
2018-12-05T14:48:44.591Z,66.18
2018-12-05T14:49:45.673Z,66.38
2018-12-05T14:50:44.572Z,66.80
2018-12-05T14:51:44.671Z,66.80
2018-12-05T14:52:44.547Z,66.52
2018-12-05T14:53:44.592Z,66.52
2018-12-05T14:54:44.529Z,66.52
2018-12-05T14:55:44.551Z,66.52
2018-12-05T14:56:44.527Z,66.62
2018-12-05T14:57:44.539Z,66.62
2018-12-05T14:58:44.491Z,67.03
2018-12-05T14:59:44.589Z,67.03
2018-12-05T15:00:44.458Z,66.96
2018-12-05T15:01:44.503Z,66.96
2018-12-05T15:02:44.428Z,67.07
2018-12-05T15:03:44.531Z,66.96
2018-12-05T15:04:44.411Z,66.75
2018-12-05T15:05:44.512Z,66.96
2018-12-05T15:06:44.429Z,67.07
2018-12-05T15:07:44.469Z,67.38
2018-12-05T15:08:44.365Z,67.17
2018-12-05T15:09:44.439Z,67.48
2018-12-05T15:10:44.346Z,67.38
2018-12-05T15:11:44.442Z,68.21
2018-12-05T15:12:44.324Z,68.10
2018-12-05T15:13:44.373Z,68.10
2018-12-05T15:14:44.295Z,67.58
2018-12-05T15:15:44.350Z,67.58
2018-12-05T15:16:44.305Z,67.58
2018-12-05T15:17:45.331Z,67.58
2018-12-05T15:18:44.263Z,67.61
2018-12-05T15:19:44.288Z,67.51
2018-12-05T15:20:44.297Z,67.51
2018-12-05T15:21:44.341Z,67.51
2018-12-05T15:22:44.224Z,67.79
2018-12-05T15:23:44.424Z,67.82
2018-12-05T15:24:44.189Z,68.03
2018-12-05T15:25:44.281Z,68.03
2018-12-05T15:26:44.171Z,67.82
2018-12-05T15:27:44.305Z,68.24
2018-12-05T15:28:44.141Z,68.44
2018-12-05T15:29:44.218Z,68.55
2018-12-05T15:30:44.119Z,68.55
2018-12-05T15:31:44.184Z,68.65
2018-12-05T15:32:44.126Z,68.65
2018-12-05T15:33:44.182Z,68.96
2018-12-05T15:34:44.079Z,68.44
2018-12-05T15:35:44.119Z,69.38
2018-12-05T15:36:44.052Z,68.86
2018-12-05T15:37:44.127Z,68.65
2018-12-05T15:38:44.030Z,68.76
2018-12-05T15:39:44.067Z,69.21
2018-12-05T15:40:44.025Z,68.86
2018-12-05T15:41:44.039Z,68.86
2018-12-05T15:42:43.996Z,69.00
2018-12-05T15:43:44.100Z,69.10
2018-12-05T15:44:43.964Z,68.96
2018-12-05T15:45:44.063Z,69.07
2018-12-05T15:46:43.935Z,69.17
2018-12-05T15:47:44.073Z,69.59
2018-12-05T15:48:43.913Z,69.48
2018-12-05T15:49:44.002Z,69.52
2018-12-05T15:50:43.903Z,69.83
2018-12-05T15:51:43.969Z,69.62
2018-12-05T15:52:43.973Z,69.59
2018-12-05T15:53:43.932Z,69.62
2018-12-05T15:54:43.851Z,69.79
2018-12-05T15:55:43.921Z,69.52
2018-12-05T15:56:43.827Z,70.14
2018-12-05T15:57:43.911Z,70.21
2018-12-05T15:58:43.803Z,70.76
2018-12-05T15:59:43.854Z,70.42
2018-12-05T16:00:43.780Z,70.25
2018-12-05T16:01:43.807Z,70.25
2018-12-05T16:02:43.764Z,70.14
2018-12-05T16:03:43.819Z,70.25
2018-12-05T16:04:43.733Z,70.25
2018-12-05T16:05:43.744Z,70.04
2018-12-05T16:06:43.722Z,70.25
2018-12-05T16:07:44.746Z,70.76
2018-12-05T16:08:43.713Z,70.35
2018-12-05T16:09:44.703Z,70.56
2018-12-05T16:10:43.668Z,70.87
2018-12-05T16:11:43.752Z,70.97
2018-12-05T16:12:43.645Z,70.87
2018-12-05T16:13:43.753Z,70.59
2018-12-05T16:14:43.637Z,70.76
2018-12-05T16:15:43.688Z,71.31
2018-12-05T16:16:43.615Z,71.28
2018-12-05T16:17:43.662Z,71.21
2018-12-05T16:18:43.616Z,71.18
2018-12-05T16:19:43.628Z,71.28
2018-12-05T16:20:43.559Z,71.28
2018-12-05T16:21:43.604Z,71.39
2018-12-05T16:22:43.531Z,71.18
2018-12-05T16:23:43.609Z,71.39
2018-12-05T16:24:43.511Z,71.28
2018-12-05T16:25:43.528Z,71.52
2018-12-05T16:26:43.489Z,71.39
2018-12-05T16:27:43.600Z,71.39
2018-12-05T16:28:43.485Z,71.31
2018-12-05T16:29:43.577Z,71.31
2018-12-05T16:30:43.460Z,71.73
2018-12-05T16:31:43.556Z,72.04
2018-12-05T16:32:43.518Z,72.56
2018-12-05T16:33:43.542Z,72.35
2018-12-05T16:34:43.419Z,72.25
2018-12-05T16:35:43.481Z,72.22
2018-12-05T16:36:43.393Z,72.22
2018-12-05T16:37:43.440Z,72.45
2018-12-05T16:38:43.401Z,72.45
2018-12-05T16:39:43.414Z,72.66
2018-12-05T16:40:43.334Z,72.35
2018-12-05T16:41:43.449Z,72.74
2018-12-05T16:42:43.327Z,72.77
2018-12-05T16:43:43.391Z,72.87
2018-12-05T16:44:43.289Z,72.77
2018-12-05T16:45:43.315Z,73.08
2018-12-05T16:46:43.265Z,72.97
2018-12-05T16:47:43.390Z,73.18
2018-12-05T16:48:43.292Z,72.87
2018-12-05T16:49:44.275Z,72.97
2018-12-05T16:50:43.215Z,72.77
2018-12-05T16:51:44.238Z,72.66
2018-12-05T16:52:43.199Z,72.56
2018-12-05T16:53:43.304Z,72.66
2018-12-05T16:54:43.207Z,72.59
2018-12-05T16:55:43.255Z,72.56
2018-12-05T16:56:43.155Z,73.11
2018-12-05T16:57:43.247Z,72.69
2018-12-05T16:58:43.131Z,72.97
2018-12-05T16:59:43.240Z,72.90
2018-12-05T17:00:43.119Z,73.00
2018-12-05T17:01:43.162Z,73.08
2018-12-05T17:02:43.093Z,73.11
2018-12-05T17:03:43.131Z,72.90
2018-12-05T17:04:43.089Z,73.00
2018-12-05T17:05:43.101Z,73.43
2018-12-05T17:06:43.058Z,73.53
2018-12-05T17:07:43.070Z,73.53
2018-12-05T17:08:43.017Z,73.22
2018-12-05T17:09:43.085Z,73.32
2018-12-05T17:10:42.996Z,73.22
2018-12-05T17:11:43.010Z,73.32
2018-12-05T17:12:42.995Z,73.14
2018-12-05T17:13:43.069Z,73.11
2018-12-05T17:14:42.973Z,73.84
2018-12-05T17:15:43.043Z,73.63
2018-12-05T17:16:42.927Z,73.94
2018-12-05T17:17:43.004Z,74.18
2018-12-05T17:18:42.910Z,73.56
2018-12-05T17:19:43.023Z,73.94
2018-12-05T17:20:42.887Z,73.77
2018-12-05T17:21:42.944Z,74.08
2018-12-05T17:22:42.866Z,74.15
2018-12-05T17:23:42.915Z,74.29
2018-12-05T17:24:42.864Z,74.29
2018-12-05T17:25:42.891Z,74.70
2018-12-05T17:26:42.829Z,74.91
2018-12-05T17:27:42.855Z,75.09
2018-12-05T17:28:42.798Z,75.64
2018-12-05T17:29:42.851Z,75.19
2018-12-05T17:30:42.785Z,74.98
2018-12-05T17:31:42.783Z,74.98
2018-12-05T17:32:42.757Z,74.80
2018-12-05T17:33:43.891Z,74.98
2018-12-05T17:34:42.729Z,75.54
2018-12-05T17:35:43.781Z,75.01
2018-12-05T17:36:42.704Z,75.01
2018-12-05T17:37:42.795Z,75.29
2018-12-05T17:38:42.681Z,75.43
2018-12-05T17:39:42.774Z,75.40
2018-12-05T17:40:42.683Z,75.64
2018-12-05T17:41:42.737Z,75.43
2018-12-05T17:42:42.641Z,75.43
2018-12-05T17:43:42.702Z,75.50
2018-12-05T17:44:42.615Z,75.43
2018-12-05T17:45:42.701Z,75.22
2018-12-05T17:46:42.587Z,75.54
2018-12-05T17:47:42.632Z,75.54
2018-12-05T17:48:42.574Z,75.54
2018-12-05T17:49:42.599Z,75.32
2018-12-05T17:50:42.699Z,75.43
2018-12-05T17:51:42.567Z,75.43
2018-12-05T17:52:42.523Z,75.32
2018-12-05T17:53:42.534Z,75.43
2018-12-05T17:54:42.513Z,75.64
2018-12-05T17:55:42.555Z,75.22
2018-12-05T17:56:42.562Z,76.37
2018-12-05T17:57:42.607Z,75.32
2018-12-05T17:58:42.455Z,76.16
2018-12-05T17:59:42.550Z,76.16
2018-12-05T18:00:42.455Z,76.37
2018-12-05T18:01:44.255Z,76.16
2018-12-05T18:02:42.412Z,75.64
2018-12-05T18:03:42.479Z,75.64
2018-12-05T18:04:42.388Z,75.54
2018-12-05T18:05:42.498Z,75.64
2018-12-05T18:06:42.379Z,75.85
2018-12-05T18:07:42.417Z,76.37
2018-12-05T18:08:42.808Z,76.37
2018-12-05T18:09:42.385Z,76.37
2018-12-05T18:10:42.473Z,76.26
2018-12-05T18:11:42.391Z,76.37
2018-12-05T18:12:42.307Z,75.64
2018-12-05T18:13:42.974Z,76.26
2018-12-05T18:14:42.288Z,75.43
2018-12-05T18:15:47.409Z,76.37
2018-12-05T18:16:42.272Z,76.29
2018-12-05T18:17:43.284Z,76.29
2018-12-05T18:18:42.227Z,76.19
2018-12-05T18:19:42.339Z,76.19
2018-12-05T18:20:42.225Z,75.98
2018-12-05T18:21:42.469Z,76.09
2018-12-05T18:22:42.201Z,76.09
2018-12-05T18:23:42.261Z,76.40
2018-12-05T18:24:42.787Z,76.51
2018-12-05T18:25:43.355Z,76.12
2018-12-05T18:26:44.331Z,76.23
2018-12-05T18:27:43.225Z,76.43
2018-12-05T18:28:42.129Z,76.51
2018-12-05T18:29:42.175Z,76.75
2018-12-05T18:30:42.098Z,76.33
2018-12-05T18:31:42.272Z,76.64
2018-12-05T18:32:42.073Z,76.64
2018-12-05T18:33:42.109Z,76.95
2018-12-05T18:34:42.073Z,76.95
2018-12-05T18:35:42.185Z,76.85
2018-12-05T18:36:42.051Z,77.06
2018-12-05T18:37:42.149Z,77.16
2018-12-05T18:38:42.009Z,77.16
2018-12-05T18:39:42.119Z,77.06
2018-12-05T18:40:41.983Z,77.27
2018-12-05T18:41:42.125Z,76.95
2018-12-05T18:42:41.975Z,77.37
2018-12-05T18:43:42.261Z,77.58
2018-12-05T18:44:41.951Z,77.48
2018-12-05T18:45:42.029Z,77.48
2018-12-05T18:46:41.937Z,77.69
2018-12-05T18:47:42.103Z,77.44
2018-12-05T18:48:41.913Z,77.48
2018-12-05T18:49:42.055Z,77.69
2018-12-05T18:50:41.888Z,77.79
2018-12-05T18:51:41.955Z,77.79
2018-12-05T18:52:41.846Z,78.00
2018-12-05T18:53:41.999Z,77.89
2018-12-05T18:54:41.850Z,78.00
2018-12-05T18:55:41.964Z,78.10
2018-12-05T18:56:41.834Z,78.20
2018-12-05T18:57:41.932Z,78.34
2018-12-05T18:58:41.792Z,78.45
2018-12-05T18:59:41.904Z,78.45
2018-12-05T19:00:41.757Z,78.76
2018-12-05T19:01:41.974Z,78.76
2018-12-05T19:02:41.764Z,78.86
2018-12-05T19:03:41.830Z,78.76
2018-12-05T19:04:41.716Z,78.76
2018-12-05T19:05:41.901Z,78.76
2018-12-05T19:06:41.700Z,78.76
2018-12-05T19:07:41.819Z,78.69
2018-12-05T19:08:41.664Z,79.07
2018-12-05T19:09:41.751Z,79.32
2018-12-05T19:10:41.652Z,78.90
2018-12-05T19:11:41.804Z,79.11
2018-12-05T19:12:41.644Z,79.32
2018-12-05T19:13:41.671Z,79.42
2018-12-05T19:14:41.606Z,79.32
2018-12-05T19:15:41.644Z,79.32
2018-12-05T19:16:41.582Z,79.42
2018-12-05T19:17:41.658Z,79.52
2018-12-05T19:18:41.562Z,79.52
2018-12-05T19:19:41.591Z,79.94
2018-12-05T19:20:41.547Z,79.73
2018-12-05T19:21:41.548Z,80.05
2018-12-05T19:22:41.534Z,80.01
2018-12-05T19:23:41.613Z,80.05
2018-12-05T19:24:41.491Z,80.01
2018-12-05T19:25:41.661Z,79.91
2018-12-05T19:26:41.473Z,80.05
2018-12-05T19:27:41.604Z,80.15
2018-12-05T19:28:41.450Z,80.36
2018-12-05T19:29:41.520Z,80.15
2018-12-05T19:30:41.420Z,79.94
2018-12-05T19:31:41.494Z,80.01
2018-12-05T19:32:41.434Z,80.11
2018-12-05T19:33:41.466Z,80.05
2018-12-05T19:34:41.382Z,80.15
2018-12-05T19:35:41.430Z,79.91
2018-12-05T19:36:41.380Z,79.94
2018-12-05T19:37:41.414Z,80.11
2018-12-05T19:38:41.350Z,79.94
2018-12-05T19:39:41.365Z,80.88
2018-12-05T19:40:41.325Z,79.83
2018-12-05T19:41:41.329Z,79.91
2018-12-05T19:42:41.288Z,80.88
2018-12-05T19:43:41.342Z,80.05
2018-12-05T19:44:41.267Z,80.05
2018-12-05T19:45:42.397Z,80.15
2018-12-05T19:46:41.271Z,80.15
2018-12-05T19:47:42.256Z,80.77
2018-12-05T19:48:41.259Z,79.94
2018-12-05T19:49:43.251Z,80.32
2018-12-05T19:50:41.206Z,80.01
2018-12-05T19:51:41.273Z,80.01
2018-12-05T19:52:41.210Z,80.01
2018-12-05T19:53:41.277Z,80.01
2018-12-05T19:54:41.143Z,80.22
2018-12-05T19:55:41.326Z,79.91
2018-12-05T19:56:41.142Z,80.05
2018-12-05T19:57:41.278Z,80.01
2018-12-05T19:58:41.155Z,80.22
2018-12-05T19:59:41.257Z,80.05
2018-12-05T20:00:41.078Z,80.15
2018-12-05T20:01:41.116Z,79.91
2018-12-05T20:02:41.060Z,79.94
2018-12-05T20:03:41.219Z,80.05
2018-12-05T20:04:41.046Z,79.94
2018-12-05T20:05:41.151Z,80.15
2018-12-05T20:06:41.016Z,79.83
2018-12-05T20:07:41.220Z,80.15
2018-12-05T20:08:42.787Z,79.52
2018-12-05T20:09:41.087Z,79.73
2018-12-05T20:10:40.965Z,79.66
2018-12-05T20:11:41.053Z,79.63
2018-12-05T20:12:40.950Z,79.56
2018-12-05T20:13:44.029Z,79.63
2018-12-05T20:14:40.936Z,79.42
2018-12-05T20:15:41.000Z,79.56
2018-12-05T20:16:40.912Z,79.46
2018-12-05T20:17:40.974Z,79.66
2018-12-05T20:18:40.885Z,79.35
2018-12-05T20:19:40.981Z,79.46
2018-12-05T20:20:40.874Z,79.35
2018-12-05T20:21:41.000Z,79.42
2018-12-05T20:22:40.834Z,79.21
2018-12-05T20:23:40.865Z,79.42
2018-12-05T20:24:40.843Z,79.35
2018-12-05T20:25:41.041Z,79.32
2018-12-05T20:26:40.793Z,79.25
2018-12-05T20:27:40.902Z,79.21
2018-12-05T20:28:42.244Z,79.21
2018-12-05T20:29:41.069Z,79.25
2018-12-05T20:30:40.759Z,79.35
2018-12-05T20:31:41.869Z,79.14
2018-12-05T20:32:40.723Z,79.14
2018-12-05T20:33:40.820Z,79.14
2018-12-05T20:34:40.727Z,79.04
2018-12-05T20:35:40.892Z,79.04
2018-12-05T20:36:40.915Z,78.94
2018-12-05T20:37:40.744Z,78.94
2018-12-05T20:38:40.658Z,78.63
2018-12-05T20:39:40.869Z,78.63
2018-12-05T20:40:40.639Z,78.90
2018-12-05T20:41:41.722Z,78.94
2018-12-05T20:42:40.632Z,78.83
2018-12-05T20:43:41.774Z,78.63
2018-12-05T20:44:40.601Z,78.83
2018-12-05T20:45:40.721Z,78.59
2018-12-05T20:46:40.569Z,78.28
2018-12-05T20:47:40.592Z,78.59
2018-12-05T20:48:40.549Z,78.42
2018-12-05T20:49:40.710Z,78.28
2018-12-05T20:50:40.525Z,78.38
2018-12-05T20:51:40.631Z,78.31
2018-12-05T20:52:40.500Z,78.42
2018-12-05T20:53:40.607Z,78.07
2018-12-05T20:54:40.486Z,78.20
2018-12-05T20:55:40.609Z,78.17
2018-12-05T20:56:40.458Z,77.79
2018-12-05T20:57:40.636Z,77.89
2018-12-05T20:58:40.440Z,77.89
2018-12-05T20:59:40.542Z,77.79
2018-12-05T21:00:40.444Z,77.65
2018-12-05T21:01:40.568Z,77.79
2018-12-05T21:02:40.387Z,77.55
2018-12-05T21:03:40.530Z,77.13
2018-12-05T21:04:40.368Z,76.92
2018-12-05T21:05:41.576Z,77.34
2018-12-05T21:06:40.335Z,77.13
2018-12-05T21:07:40.478Z,77.13
2018-12-05T21:08:40.318Z,77.03
2018-12-05T21:09:42.380Z,77.03
2018-12-05T21:10:40.334Z,77.03
2018-12-05T21:11:40.416Z,76.61
2018-12-05T21:12:40.276Z,76.82
2018-12-05T21:13:41.398Z,76.82
2018-12-05T21:14:40.247Z,76.72
2018-12-05T21:15:41.273Z,76.51
2018-12-05T21:16:40.228Z,76.61
2018-12-05T21:17:40.314Z,76.40
2018-12-05T21:18:40.237Z,76.30
2018-12-05T21:19:40.392Z,76.30
2018-12-05T21:20:40.206Z,76.30
2018-12-05T21:21:42.294Z,76.30
2018-12-05T21:22:46.928Z,76.30
2018-12-05T21:23:43.295Z,76.30
2018-12-05T21:24:40.144Z,76.30
2018-12-05T21:25:40.328Z,76.20
2018-12-05T21:26:40.131Z,76.30
2018-12-05T21:27:40.155Z,76.30
2018-12-05T21:28:40.103Z,76.30
2018-12-05T21:29:40.134Z,76.30
2018-12-05T21:30:40.093Z,76.30
2018-12-05T21:31:40.090Z,76.09
2018-12-05T21:32:40.060Z,76.30
2018-12-05T21:33:40.070Z,76.20
2018-12-05T21:34:40.023Z,76.20
2018-12-05T21:35:40.084Z,76.12
2018-12-05T21:36:40.034Z,76.30
2018-12-05T21:37:40.124Z,76.20